• Join FlightAware (Why Join?)
  • Login
  • US Flag GB Flag 
05:25 EDT


 

Airport Tracker/Info


-or-


 

Live Flight TrackerFlight Track Log ✈ SKW5398 ✈ 10-May-2013 ✈ KSFO - KSMF

Flight Track Log - Related Links

Times and Time Zones

All times are in EDT time to prevent confusion due to time zone crossing. See the SKW5398 flight status page for this flight to view local times or setup timezone preferences in your user account.

Time Position Orientation Groundspeed Altitude Reporting Facility
EDT Latitude Longitude Course Direction KTS MPH feet Rate Location/Type
09:57 37.6500 -122.3500 32° Northeast 156 180 1,700  Level Northern Cal TRACON
09:58 37.6833 -122.3000 50° Northeast 194 223 3,300 1,500 Climbing Northern Cal TRACON
09:59 37.6878 -122.2881 65° Northeast 185 213 3,800 1,560 Climbing Oakland Center
10:00 37.7244 -122.2397 46° Northeast 190 219 5,700 1,500 Climbing Oakland Center
10:01 37.6949 -122.3043 32° Northeast  Level FlightAware Approximate
10:01 37.7622 -122.1897 46° Northeast 195 224 6,900  Level Oakland Center
10:02 37.8049 -122.2164 32° Northeast  Level FlightAware Approximate
10:02 37.8183 -122.1211 44° Northeast 230 265 7,000  Level Oakland Center
10:03 37.8566 -122.1750 32° Northeast  Level FlightAware Approximate
10:03 37.8803 -122.0925 20° North 243 280 7,000  Level Oakland Center
10:04 37.9436 -122.0733 13° North 237 273 7,000 -60 Level Oakland Center
10:05 38.0075 -122.0553 13° North 236 272 6,900 -60 Descending Oakland Center
10:06 38.0661 -122.0239 23° Northeast 231 266 6,900  Level Oakland Center
10:07 38.1236 -121.9861 27° Northeast 235 270 7,000  Climbing Oakland Center
10:08 38.1875 -121.9656 14° North 238 274 7,000  Level Oakland Center
10:09 38.2511 -121.9436 15° North 239 275 7,000 -300 Level Oakland Center
10:10 38.3100 -121.9081 25° Northeast 242 278 6,500 -960 Descending Oakland Center
10:11 38.3342 -121.8325 68° East 233 268 5,100 -780 Descending Oakland Center
10:12 38.3675 -121.7525 62° Northeast 213 245 5,000 -600 Descending Oakland Center
10:13 38.3981 -121.6878 59° Northeast 212 244 3,900 -1,020 Descending Oakland Center
10:14 38.4392 -121.6394 43° Northeast 232 267 3,000 -480 Descending Oakland Center
10:15 38.5000 -121.6167 16° North 203 234 3,000 -360 Level Northern Cal TRACON
10:16 38.5500 -121.6000 15° North 173 199 2,400 -600 Descending Northern Cal TRACON